Time;durP1;ratioP1;P1;durP2;ratioP2;P2;SDS_P1;SDS_P2;PMS_P1;PMS_P2;Temp;Humidity;BMP_temperature;BMP_pressure;BME280_temperature;BME280_humidity;BME280_pressure;Samples;Min_cycle;Max_cycle;Signal;HPM_P1;HPM_P2
2021/03/24 00:01:42;;;;;;;2.20;2.00;;;18.10;50.20;;;;;;5001343;28;20044;-66
2021/03/24 00:04:08;;;;;;;5.22;2.08;;;18.10;50.20;;;;;;5006015;28;20038;-66
2021/03/24 00:06:33;;;;;;;4.07;2.47;;;18.10;50.20;;;;;;5006074;28;20053;-67
2021/03/24 00:09:00;;;;;;;2.95;2.30;;;18.10;50.20;;;;;;5005552;28;20113;-66
2021/03/24 00:11:25;;;;;;;3.45;2.20;;;18.10;50.20;;;;;;5006893;28;20034;-66
2021/03/24 00:13:51;;;;;;;4.43;2.63;;;18.10;50.20;;;;;;5006730;28;20088;-66
2021/03/24 00:16:17;;;;;;;4.28;2.40;;;18.20;50.20;;;;;;5006237;28;20034;-66
2021/03/24 00:18:42;;;;;;;3.08;1.90;;;18.10;50.20;;;;;;5004871;28;20515;-67
2021/03/24 00:21:08;;;;;;;3.88;2.53;;;18.10;50.20;;;;;;5004904;28;20625;-67
2021/03/24 00:23:33;;;;;;;4.57;2.45;;;18.10;50.20;;;;;;5004221;28;20038;-67
2021/03/24 00:25:59;;;;;;;2.25;1.92;;;18.10;50.20;;;;;;5006243;28;20712;-66
2021/03/24 00:28:24;;;;;;;3.78;2.17;;;18.10;50.20;;;;;;5006443;28;20520;-66
2021/03/24 00:30:50;;;;;;;3.58;2.63;;;18.00;50.20;;;;;;5004673;28;20132;-66
2021/03/24 00:33:18;;;;;;;3.05;2.40;;;18.10;50.20;;;;;;5006233;28;22713;-67
2021/03/24 00:35:44;;;;;;;2.75;2.40;;;18.10;50.20;;;;;;5005144;28;20038;-67
2021/03/24 00:38:10;;;;;;;4.40;2.50;;;18.10;50.20;;;;;;5006043;28;20092;-67
2021/03/24 00:40:40;;;;;;;3.60;2.22;;;18.10;50.20;;;;;;5005731;28;20041;-65
2021/03/24 00:43:05;;;;;;;2.45;2.22;;;18.00;50.20;;;;;;4994963;28;20033;-65
2021/03/24 00:45:32;;;;;;;2.53;2.00;;;18.10;50.20;;;;;;5005908;28;20679;-66
2021/03/24 00:47:57;;;;;;;3.33;2.38;;;18.10;50.20;;;;;;5004006;28;20757;-66
2021/03/24 00:50:25;;;;;;;3.10;2.42;;;18.10;50.10;;;;;;5004910;28;20030;-66
2021/03/24 00:52:51;;;;;;;3.85;2.50;;;18.10;50.10;;;;;;5005532;28;20030;-66
2021/03/24 00:55:16;;;;;;;2.42;2.08;;;18.10;50.00;;;;;;5006292;28;20621;-66
2021/03/24 00:57:42;;;;;;;3.90;2.38;;;18.00;50.00;;;;;;5005695;28;20034;-66
2021/03/24 01:00:16;;;;;;;3.00;2.47;;;18.10;50.00;;;;;;5005599;28;20413;-66
2021/03/24 01:02:42;;;;;;;3.60;2.40;;;18.10;50.00;;;;;;4993146;28;20053;-66
2021/03/24 01:05:08;;;;;;;3.95;2.53;;;18.10;49.90;;;;;;5005588;28;20493;-66
2021/03/24 01:07:34;;;;;;;3.33;2.63;;;18.00;49.90;;;;;;4987008;28;20038;-66
2021/03/24 01:09:59;;;;;;;2.95;2.63;;;18.10;50.00;;;;;;5005218;28;20052;-67
2021/03/24 01:12:25;;;;;;;4.80;2.67;;;18.10;49.90;;;;;;5005377;28;20029;-67
2021/03/24 01:14:50;;;;;;;5.47;2.80;;;18.10;49.90;;;;;;5003761;28;20440;-66
2021/03/24 01:17:16;;;;;;;2.50;2.22;;;18.10;49.90;;;;;;5005014;28;21045;-66
2021/03/24 01:19:43;;;;;;;2.50;2.30;;;18.10;49.80;;;;;;5005375;28;20136;-66
2021/03/24 01:22:08;;;;;;;3.20;2.50;;;18.10;49.80;;;;;;5005604;28;20400;-66
2021/03/24 01:24:33;;;;;;;3.20;2.70;;;18.10;49.80;;;;;;5005381;28;20042;-65
2021/03/24 01:26:59;;;;;;;4.22;2.80;;;18.10;49.80;;;;;;5005273;28;20044;-66
2021/03/24 01:29:24;;;;;;;2.95;2.58;;;18.10;49.80;;;;;;5005803;28;20045;-67
2021/03/24 01:31:50;;;;;;;4.45;2.65;;;18.10;49.70;;;;;;5004250;28;20049;-67
2021/03/24 01:34:16;;;;;;;6.43;2.95;;;18.10;49.70;;;;;;5005171;28;20029;-67
2021/03/24 01:36:41;;;;;;;3.10;2.55;;;18.10;49.70;;;;;;5004344;28;20353;-67
2021/03/24 01:39:06;;;;;;;2.97;2.55;;;18.10;49.70;;;;;;4987431;28;20707;-67
2021/03/24 01:41:32;;;;;;;3.55;3.05;;;18.10;49.70;;;;;;4982434;28;20073;-66
2021/03/24 01:43:58;;;;;;;5.00;3.13;;;18.10;49.80;;;;;;5005501;28;20034;-66
2021/03/24 01:46:34;;;;;;;3.95;2.60;;;18.00;49.80;;;;;;5004531;28;20133;-65
2021/03/24 01:49:12;;;;;;;4.38;3.38;;;18.10;49.80;;;;;;4997705;28;20029;-65
2021/03/24 01:51:52;;;;;;;3.10;2.50;;;18.00;49.70;;;;;;5004229;28;20038;-65
2021/03/24 01:54:20;;;;;;;3.95;3.28;;;18.10;49.80;;;;;;5004383;28;20037;-65
2021/03/24 01:56:48;;;;;;;2.72;2.45;;;18.00;49.70;;;;;;4984030;28;20045;-64
2021/03/24 01:59:14;;;;;;;3.60;2.90;;;18.00;49.70;;;;;;5002613;28;20045;-65
2021/03/24 02:01:41;;;;;;;4.03;3.10;;;18.10;49.70;;;;;;5003237;28;20042;-65
2021/03/24 02:04:06;;;;;;;2.90;2.60;;;18.00;49.80;;;;;;5003373;28;20038;-67
2021/03/24 02:06:44;;;;;;;3.58;2.55;;;18.00;49.70;;;;;;5003797;28;20037;-67
2021/03/24 02:09:20;;;;;;;3.78;2.75;;;18.00;49.70;;;;;;5002774;28;20038;-65
2021/03/24 02:11:50;;;;;;;;;;;18.00;49.70;;;;;;5003570;28;20045;-65
2021/03/24 02:14:53;;;;;;;3.40;2.70;;;18.00;49.70;;;;;;5005399;28;19917;-65
2021/03/24 02:17:21;;;;;;;5.13;2.90;;;18.00;49.70;;;;;;4996059;28;20496;-65
2021/03/24 02:19:50;;;;;;;3.70;3.25;;;18.00;49.70;;;;;;4995615;28;20237;-66
2021/03/24 02:22:18;;;;;;;3.60;3.13;;;18.00;49.70;;;;;;5002984;28;20034;-66
2021/03/24 02:25:11;;;;;;;3.08;2.55;;;18.00;49.70;;;;;;5002591;28;20554;-65
2021/03/24 02:27:40;;;;;;;4.13;3.20;;;18.00;49.70;;;;;;4996612;28;20041;-65
2021/03/24 02:30:14;;;;;;;4.55;2.90;;;18.00;49.60;;;;;;5001230;28;20030;-64
2021/03/24 02:32:43;;;;;;;4.18;2.97;;;18.00;49.60;;;;;;4993499;28;20444;-63
2021/03/24 02:35:14;;;;;;;4.65;3.50;;;18.00;49.70;;;;;;4981596;28;20112;-65
2021/03/24 02:37:40;;;;;;;3.80;3.40;;;18.00;49.60;;;;;;4996331;28;20095;-63
2021/03/24 02:40:08;;;;;;;3.72;3.22;;;18.00;49.60;;;;;;4999595;28;20034;-63
2021/03/24 02:42:33;;;;;;;3.75;3.05;;;18.00;49.60;;;;;;4975865;28;20049;-62
2021/03/24 02:44:59;;;;;;;3.72;3.20;;;18.00;49.60;;;;;;4999745;28;20041;-63
2021/03/24 02:47:24;;;;;;;3.78;3.38;;;18.00;49.60;;;;;;5001902;28;20121;-63
2021/03/24 02:49:50;;;;;;;3.60;3.10;;;18.00;49.60;;;;;;5001978;28;20137;-61
2021/03/24 02:52:15;;;;;;;4.32;2.67;;;18.00;49.50;;;;;;5001143;28;20567;-65
2021/03/24 02:54:41;;;;;;;3.88;2.92;;;18.00;49.50;;;;;;5003033;28;20042;-65
2021/03/24 02:57:07;;;;;;;3.47;2.85;;;18.00;49.60;;;;;;4997707;28;20496;-65
2021/03/24 02:59:33;;;;;;;5.28;3.17;;;18.00;49.50;;;;;;4983413;28;20088;-66
2021/03/24 03:02:11;;;;;;;5.28;3.38;;;18.00;49.50;;;;;;5003340;28;20412;-65
2021/03/24 03:04:45;;;;;;;3.10;2.70;;;18.00;49.50;;;;;;5001708;28;20052;-67
2021/03/24 03:07:22;;;;;;;4.07;3.60;;;17.90;49.60;;;;;;5001540;28;20197;-67
2021/03/24 03:09:52;;;;;;;3.60;3.00;;;18.00;49.50;;;;;;4995871;28;20681;-66
2021/03/24 03:12:32;;;;;;;4.32;3.60;;;18.00;49.60;;;;;;4999667;28;20569;-66
2021/03/24 03:14:59;;;;;;;3.67;3.08;;;18.00;49.60;;;;;;5001874;28;20037;-66
2021/03/24 03:17:33;;;;;;;3.75;3.05;;;18.00;49.50;;;;;;5001435;28;20034;-66
2021/03/24 03:20:07;;;;;;;4.03;3.50;;;17.90;49.60;;;;;;5002149;28;20045;-66
2021/03/24 03:22:35;;;;;;;4.68;3.50;;;18.00;49.50;;;;;;5003264;28;20041;-66
2021/03/24 03:25:13;;;;;;;4.03;3.03;;;18.00;49.50;;;;;;5002837;28;20056;-66
2021/03/24 03:27:39;;;;;;;3.78;3.13;;;17.90;49.50;;;;;;5000955;28;20116;-66
2021/03/24 03:30:06;;;;;;;5.20;3.10;;;18.00;49.50;;;;;;5001791;28;20465;-66
2021/03/24 03:32:32;;;;;;;4.28;3.38;;;17.90;49.40;;;;;;5000214;28;20044;-66
2021/03/24 03:35:00;;;;;;;3.35;3.05;;;17.90;49.50;;;;;;4994677;28;20034;-65
2021/03/24 03:37:25;;;;;;;4.45;3.38;;;17.90;49.40;;;;;;5003968;28;20034;-66
2021/03/24 03:39:51;;;;;;;4.15;3.30;;;17.90;49.40;;;;;;4998318;28;20041;-66
2021/03/24 03:42:16;;;;;;;4.88;3.65;;;18.00;49.50;;;;;;5003968;28;20117;-65
2021/03/24 03:44:42;;;;;;;6.32;3.75;;;17.90;49.40;;;;;;5022218;28;20062;-66
2021/03/24 03:47:10;;;;;;;4.07;3.00;;;17.90;49.40;;;;;;5005070;28;20050;-65
2021/03/24 03:49:36;;;;;;;4.03;3.60;;;17.90;49.40;;;;;;4998725;28;20128;-66
2021/03/24 03:52:25;;;;;;;4.10;3.40;;;18.00;49.40;;;;;;5005889;28;20121;-66
2021/03/24 03:55:15;;;;;;;3.83;3.42;;;17.90;49.40;;;;;;4988602;28;20133;-66
2021/03/24 03:57:43;;;;;;;6.45;3.78;;;17.90;49.30;;;;;;4992981;28;20045;-66
2021/03/24 04:00:12;;;;;;;3.72;3.40;;;17.90;49.40;;;;;;4997202;28;20046;-66
2021/03/24 04:02:48;;;;;;;4.53;3.28;;;17.90;49.40;;;;;;5004653;28;20045;-67
2021/03/24 04:05:18;;;;;;;3.72;3.33;;;17.90;49.40;;;;;;5005277;28;20091;-66
2021/03/24 04:07:51;;;;;;;5.13;3.95;;;17.90;49.40;;;;;;5004476;28;20041;-67
2021/03/24 04:10:16;;;;;;;3.92;3.53;;;17.90;49.30;;;;;;5005605;28;20069;-67
2021/03/24 04:12:42;;;;;;;4.50;3.65;;;17.90;49.30;;;;;;5003376;28;20073;-66
2021/03/24 04:15:11;;;;;;;4.47;3.50;;;18.00;49.40;;;;;;4984880;28;20054;-66
2021/03/24 04:17:42;;;;;;;5.53;3.95;;;18.00;49.30;;;;;;5003471;28;20053;-66
2021/03/24 04:20:08;;;;;;;3.90;3.50;;;17.90;49.40;;;;;;5005220;28;20034;-66
2021/03/24 04:22:33;;;;;;;5.10;3.58;;;18.00;49.40;;;;;;5005180;28;20054;-66
2021/03/24 04:24:59;;;;;;;4.40;3.53;;;17.90;49.40;;;;;;5006136;28;20107;-68
2021/03/24 04:27:27;;;;;;;3.90;3.38;;;17.90;49.40;;;;;;5001102;28;20119;-66
2021/03/24 04:30:01;;;;;;;6.20;3.80;;;17.90;49.40;;;;;;5004948;28;20038;-66
2021/03/24 04:32:26;;;;;;;5.57;3.80;;;18.00;49.40;;;;;;5003838;28;20034;-66
2021/03/24 04:34:52;;;;;;;4.82;3.67;;;18.00;49.40;;;;;;5004860;28;20029;-67
2021/03/24 04:37:43;;;;;;;4.20;3.80;;;17.90;49.30;;;;;;5004916;28;20551;-67
2021/03/24 04:40:15;;;;;;;3.90;3.30;;;17.90;49.40;;;;;;5004176;28;20034;-66
2021/03/24 04:43:01;;;;;;;4.07;3.67;;;17.90;49.40;;;;;;4996255;28;20500;-66
2021/03/24 04:45:37;;;;;;;4.72;3.70;;;17.90;49.40;;;;;;4988668;28;20045;-66
2021/03/24 04:48:16;;;;;;;4.30;3.83;;;17.90;49.40;;;;;;4995379;28;20038;-66
2021/03/24 04:50:56;;;;;;;4.57;4.00;;;17.90;49.40;;;;;;5004192;28;20026;-66
2021/03/24 04:53:21;;;;;;;4.35;3.58;;;17.90;49.40;;;;;;5003697;28;20030;-66
2021/03/24 04:55:47;;;;;;;4.05;3.42;;;17.90;50.10;;;;;;4987634;28;20583;-66
2021/03/24 04:58:30;;;;;;;5.13;3.85;;;17.90;49.50;;;;;;5003673;28;20033;-68
2021/03/24 05:01:00;;;;;;;4.38;3.97;;;17.90;49.50;;;;;;5004217;28;20452;-66
2021/03/24 05:03:28;;;;;;;5.13;3.60;;;17.90;49.40;;;;;;5003786;28;20041;-66
2021/03/24 05:05:56;;;;;;;4.43;3.65;;;17.90;49.40;;;;;;5003726;28;20527;-66
2021/03/24 05:08:25;;;;;;;3.67;3.38;;;17.90;49.40;;;;;;5003468;28;20113;-67
2021/03/24 05:10:51;;;;;;;4.65;3.60;;;17.90;49.40;;;;;;5003568;28;20038;-66
2021/03/24 05:13:26;;;;;;;4.53;3.95;;;17.80;49.40;;;;;;5003829;28;20034;-66
2021/03/24 05:16:15;;;;;;;5.72;4.15;;;17.90;49.40;;;;;;4997174;28;20267;-66
2021/03/24 05:18:41;;;;;;;4.80;4.05;;;17.90;49.40;;;;;;5003153;28;20437;-67
2021/03/24 05:21:15;;;;;;;5.07;4.25;;;17.90;49.40;;;;;;5005026;28;20036;-67
2021/03/24 05:23:40;;;;;;;4.63;3.55;;;17.90;49.40;;;;;;5001537;28;20032;-67
2021/03/24 05:26:17;;;;;;;5.03;4.40;;;17.80;49.40;;;;;;4983412;28;20046;-67
2021/03/24 05:28:43;;;;;;;5.93;3.58;;;17.90;49.40;;;;;;5004885;28;20034;-67
2021/03/24 05:31:14;;;;;;;5.80;4.60;;;17.90;49.30;;;;;;5004299;28;20131;-67
2021/03/24 05:33:41;;;;;;;4.63;4.15;;;17.90;49.30;;;;;;4988394;28;20072;-67
2021/03/24 05:36:21;;;;;;;6.22;4.32;;;17.90;49.30;;;;;;5004159;28;20046;-67
2021/03/24 05:38:49;;;;;;;4.55;3.85;;;17.80;49.20;;;;;;4995633;28;20072;-67
2021/03/24 05:41:32;;;;;;;7.03;4.15;;;17.90;49.30;;;;;;5003133;28;20084;-67
2021/03/24 05:44:28;;;;;;;4.28;3.88;;;17.80;49.90;;;;;;5003718;28;20038;-67
2021/03/24 05:47:33;;;;;;;4.90;4.25;;;17.80;49.40;;;;;;4997747;28;20044;-67
2021/03/24 05:49:58;;;;;;;4.00;3.28;;;17.80;49.40;;;;;;4980467;28;20066;-67
2021/03/24 05:52:40;;;;;;;4.50;3.80;;;17.90;49.40;;;;;;4991871;28;20112;-66
2021/03/24 05:55:23;;;;;;;3.45;3.15;;;17.90;49.40;;;;;;4997594;28;20445;-67
2021/03/24 05:58:15;;;;;;;4.72;3.45;;;17.80;49.80;;;;;;5002257;28;20109;-68
2021/03/24 06:00:44;;;;;;;5.85;3.30;;;17.80;50.70;;;;;;4980917;28;20062;-67
2021/03/24 06:03:59;;;;;;;4.80;3.35;;;17.80;51.80;;;;;;4983435;28;20034;-68
2021/03/24 06:07:02;;;;;;;3.88;3.47;;;17.80;50.70;;;;;;4936224;28;20047;-66
2021/03/24 06:09:54;;;;;;;4.63;3.47;;;17.80;50.60;;;;;;5001501;28;20034;-67
2021/03/24 06:12:30;;;;;;;8.90;4.50;;;17.80;50.60;;;;;;4997323;28;20909;-67
2021/03/24 06:15:14;;;;;;;8.57;4.15;;;17.80;50.70;;;;;;5002687;28;20042;-66
2021/03/24 06:18:02;;;;;;;7.93;4.00;;;17.90;50.70;;;;;;5003524;28;20046;-67
2021/03/24 06:20:47;;;;;;;8.93;4.43;;;17.80;50.80;;;;;;4998988;28;20109;-67
2021/03/24 06:23:37;;;;;;;10.85;4.07;;;17.90;50.80;;;;;;5003294;28;20548;-67
2021/03/24 06:26:22;;;;;;;5.93;3.47;;;17.90;50.90;;;;;;5002542;28;20045;-67
2021/03/24 06:29:41;;;;;;;7.82;4.05;;;17.80;50.90;;;;;;5002931;28;20098;-67
2021/03/24 06:32:15;;;;;;;22.90;5.55;;;17.80;50.80;;;;;;4957073;28;20081;-66
2021/03/24 06:35:03;;;;;;;12.98;4.35;;;17.90;52.80;;;;;;4977644;28;20065;-67
2021/03/24 06:37:41;;;;;;;17.65;5.28;;;17.90;51.40;;;;;;5001984;28;20083;-68
2021/03/24 06:40:16;;;;;;;11.27;3.85;;;17.90;51.30;;;;;;4992388;28;20034;-67
2021/03/24 06:42:56;;;;;;;7.18;4.10;;;17.90;51.20;;;;;;4996369;28;20041;-64
2021/03/24 06:45:28;;;;;;;10.50;4.70;;;17.90;51.20;;;;;;5003679;28;20056;-66
2021/03/24 06:48:05;;;;;;;11.55;5.28;;;17.90;51.30;;;;;;5002729;28;20056;-66
2021/03/24 06:51:21;;;;;;;5.50;4.22;;;17.90;51.50;;;;;;4997450;28;20610;-66
2021/03/24 06:54:23;;;;;;;6.13;4.57;;;17.90;51.70;;;;;;4998089;28;20050;-66
2021/03/24 06:56:54;;;;;;;8.80;5.28;;;17.90;51.80;;;;;;5002912;28;20046;-66
2021/03/24 06:59:54;;;;;;;11.73;5.80;;;17.90;51.90;;;;;;5003684;28;20048;-68
2021/03/24 07:02:28;;;;;;;9.63;4.82;;;17.90;51.80;;;;;;5002808;28;20042;-67
2021/03/24 07:05:22;;;;;;;11.30;4.60;;;17.90;51.90;;;;;;4996924;28;20037;-67
2021/03/24 07:08:24;;;;;;;8.32;4.45;;;17.90;51.90;;;;;;5000728;28;20176;-66
2021/03/24 07:11:24;;;;;;;7.60;4.28;;;17.90;51.90;;;;;;4997961;28;20124;-68
2021/03/24 07:14:02;;;;;;;8.20;4.38;;;17.90;52.00;;;;;;5003600;28;20063;-66
2021/03/24 07:16:36;;;;;;;8.63;4.25;;;17.90;52.00;;;;;;5007981;28;20214;-66
2021/03/24 07:19:07;;;;;;;11.18;4.97;;;17.90;52.30;;;;;;5009795;28;20144;-66
2021/03/24 07:21:53;;;;;;;8.80;4.28;;;17.90;52.70;;;;;;5008237;28;20034;-66
2021/03/24 07:25:02;;;;;;;8.85;4.43;;;17.70;53.60;;;;;;4992799;28;20113;-65
2021/03/24 07:27:54;;;;;;;8.07;4.00;;;17.70;53.80;;;;;;4977671;28;20045;-66
2021/03/24 07:30:28;;;;;;;8.68;4.20;;;17.70;53.90;;;;;;5002657;28;20037;-65
2021/03/24 07:33:14;;;;;;;9.68;4.55;;;17.70;53.70;;;;;;5007942;28;20825;-67
2021/03/24 07:36:01;;;;;;;;;;;17.70;53.50;;;;;;5003041;28;20070;-66
2021/03/24 07:38:42;;;;;;;9.45;4.75;;;17.60;53.50;;;;;;5008123;28;20000;-65
2021/03/24 07:41:22;;;;;;;8.77;4.55;;;17.70;53.30;;;;;;4993408;28;20034;-65
2021/03/24 07:44:16;;;;;;;6.47;4.18;;;17.70;53.00;;;;;;5007333;28;20086;-67
2021/03/24 07:46:50;;;;;;;9.35;5.05;;;17.70;52.90;;;;;;5007045;28;20684;-66
2021/03/24 07:49:47;;;;;;;8.27;4.75;;;17.70;52.60;;;;;;5009917;28;20037;-67
2021/03/24 07:52:33;;;;;;;12.13;4.32;;;17.70;52.40;;;;;;5005030;28;20084;-66
2021/03/24 07:55:29;;;;;;;10.30;4.97;;;17.70;52.30;;;;;;5005234;28;20042;-65
2021/03/24 07:58:07;;;;;;;8.00;4.88;;;17.70;52.20;;;;;;5004020;28;20109;-64
2021/03/24 08:01:05;;;;;;;10.30;5.55;;;17.80;52.30;;;;;;5010075;28;20034;-66
2021/03/24 08:03:51;;;;;;;17.50;9.57;;;17.80;52.20;;;;;;5008339;28;20546;-68
2021/03/24 08:06:29;;;;;;;22.67;10.73;;;17.80;52.70;;;;;;5008817;28;20069;-64
2021/03/24 08:09:13;;;;;;;24.75;10.60;;;17.80;53.00;;;;;;5003344;28;20034;-67
2021/03/24 08:11:54;;;;;;;26.15;11.57;;;17.80;53.10;;;;;;5007153;28;20121;-66
2021/03/24 08:14:45;;;;;;;22.15;11.45;;;17.80;53.00;;;;;;4997685;28;20034;-66
2021/03/24 08:17:32;;;;;;;19.55;10.05;;;17.90;52.80;;;;;;5005991;28;20111;-68
2021/03/24 08:20:08;;;;;;;19.50;10.57;;;17.90;52.60;;;;;;5003078;28;20030;-66
2021/03/24 08:22:58;;;;;;;17.58;10.85;;;17.90;52.50;;;;;;4995453;28;20708;-66
2021/03/24 08:25:42;;;;;;;21.30;10.48;;;17.90;52.50;;;;;;5000151;28;20038;-64
2021/03/24 08:28:32;;;;;;;25.60;11.43;;;17.90;52.40;;;;;;4999132;28;20797;-65
2021/03/24 08:31:18;;;;;;;18.20;10.32;;;17.90;52.50;;;;;;5002049;28;20049;-63
2021/03/24 08:34:03;;;;;;;22.38;9.45;;;17.90;52.30;;;;;;4986591;28;20084;-63
2021/03/24 08:36:55;;;;;;;18.20;8.68;;;17.90;52.20;;;;;;5004412;28;20044;-60
2021/03/24 08:39:49;;;;;;;15.88;8.73;;;17.90;52.20;;;;;;5004959;28;20113;-63
2021/03/24 08:42:44;;;;;;;19.60;9.05;;;17.90;52.20;;;;;;4995318;28;20073;-64
2021/03/24 08:45:18;;;;;;;16.17;9.02;;;17.90;52.00;;;;;;5006173;28;20455;-62
2021/03/24 08:47:47;;;;;;;14.07;7.73;;;17.90;52.10;;;;;;5003377;28;20129;-64
2021/03/24 08:50:18;;;;;;;17.80;9.07;;;17.90;51.90;;;;;;5003898;28;20124;-64
2021/03/24 08:52:45;;;;;;;16.30;8.35;;;17.90;51.90;;;;;;5003636;28;20037;-59
2021/03/24 08:55:25;;;;;;;13.90;8.02;;;17.90;51.90;;;;;;5004291;28;20036;-63
2021/03/24 08:58:09;;;;;;;15.40;8.85;;;17.90;51.90;;;;;;4997364;28;20030;-61
2021/03/24 09:00:58;;;;;;;15.77;8.38;;;17.90;51.80;;;;;;5003566;28;20459;-65
2021/03/24 09:03:52;;;;;;;13.95;8.80;;;17.90;51.80;;;;;;4988624;28;20504;-65
2021/03/24 09:06:40;;;;;;;14.75;8.20;;;17.90;51.80;;;;;;4990003;28;20493;-63
2021/03/24 09:09:30;;;;;;;11.30;7.45;;;17.90;51.70;;;;;;5004871;28;20092;-62
2021/03/24 09:12:27;;;;;;;14.18;7.95;;;17.90;51.80;;;;;;4997637;28;20528;-65
2021/03/24 09:15:07;;;;;;;11.15;8.35;;;17.90;51.70;;;;;;4993733;28;20030;-65
2021/03/24 09:17:43;;;;;;;11.88;7.50;;;18.00;51.70;;;;;;5003074;28;20030;-61
2021/03/24 09:20:38;;;;;;;12.93;7.20;;;17.90;51.70;;;;;;5003866;28;20046;-64
2021/03/24 09:23:36;;;;;;;10.48;7.18;;;17.90;51.70;;;;;;5002823;28;20456;-62
2021/03/24 09:26:20;;;;;;;12.13;7.18;;;17.90;51.70;;;;;;4999924;28;20037;-63
2021/03/24 09:29:05;;;;;;;9.77;6.35;;;17.90;51.70;;;;;;4997552;28;20050;-63
2021/03/24 09:32:08;;;;;;;10.63;6.47;;;17.90;51.70;;;;;;5004784;28;20223;-62
2021/03/24 09:34:50;;;;;;;10.63;7.15;;;17.90;51.60;;;;;;5003299;28;20029;-63
2021/03/24 09:37:17;;;;;;;9.52;6.60;;;17.90;51.70;;;;;;5002700;28;20686;-65
2021/03/24 09:39:53;;;;;;;10.68;6.47;;;17.90;51.60;;;;;;5003483;28;20088;-63
2021/03/24 09:42:20;;;;;;;;;;;17.90;51.60;;;;;;5002914;28;20408;-65
2021/03/24 09:44:56;;;;;;;;;;;17.90;51.50;;;;;;5004448;28;19914;-65
2021/03/24 09:47:26;;;;;;;;;;;17.90;51.60;;;;;;5003717;28;19924;-65
2021/03/24 09:49:53;;;;;;;;;;;17.90;51.60;;;;;;5003755;28;19913;-61
2021/03/24 09:52:32;;;;;;;;;;;17.90;51.60;;;;;;4986711;28;19913;-63
2021/03/24 09:55:03;;;;;;;;;;;17.90;51.50;;;;;;4995474;28;19937;-62
2021/03/24 09:57:36;;;;;;;;;;;17.90;51.50;;;;;;5001077;28;19940;-57
2021/03/24 10:00:09;;;;;;;;;;;17.90;51.40;;;;;;5003806;28;19918;-63
2021/03/24 10:02:39;;;;;;;;;;;17.90;51.50;;;;;;5002621;28;19964;-63
2021/03/24 10:05:04;;;;;;;;;;;17.90;51.50;;;;;;5003102;28;19921;-62
2021/03/24 10:07:30;;;;;;;;;;;17.90;51.40;;;;;;5002037;28;19921;-63
2021/03/24 10:09:58;;;;;;;;;;;17.90;51.40;;;;;;5004919;28;20007;-65
2021/03/24 10:12:34;;;;;;;;;;;17.90;51.40;;;;;;5000702;28;20008;-65
2021/03/24 10:15:03;;;;;;;;;;;17.90;51.40;;;;;;5003455;28;19913;-65
2021/03/24 10:17:32;;;;;;;;;;;17.90;51.30;;;;;;5002999;28;19963;-65
2021/03/24 10:19:59;;;;;;;;;;;17.90;51.30;;;;;;5004870;28;19949;-64
2021/03/24 10:22:26;;;;;;;;;;;18.00;51.40;;;;;;5002504;28;19921;-62
2021/03/24 10:24:58;;;;;;;;;;;17.90;51.30;;;;;;5004944;28;19913;-62
2021/03/24 10:27:25;;;;;;;;;;;17.90;51.50;;;;;;4985796;28;19917;-64
2021/03/24 10:30:01;;;;;;;;;;;17.90;52.60;;;;;;5004372;28;19972;-65
2021/03/24 10:32:29;;;;;;;;;;;17.80;52.80;;;;;;5007124;28;19913;-62
2021/03/24 10:35:02;;;;;;;;;;;17.70;53.10;;;;;;5009380;28;19920;-64
2021/03/24 10:37:31;;;;;;;;;;;17.70;53.50;;;;;;4990534;28;19914;-65
2021/03/24 10:39:58;;;;;;;;;;;17.70;53.50;;;;;;5003934;28;19920;-65
2021/03/24 10:42:38;;;;;;;;;;;17.70;53.50;;;;;;5010232;28;19913;-65
2021/03/24 10:45:23;;;;;;;;;;;17.60;53.30;;;;;;5011018;28;20447;-64
2021/03/24 10:47:51;;;;;;;;;;;17.70;53.30;;;;;;5011156;28;20376;-60
2021/03/24 10:50:36;;;;;;;;;;;17.70;53.40;;;;;;5010794;28;19956;-67
2021/03/24 10:53:03;;;;;;;;;;;17.70;53.30;;;;;;5001232;28;19914;-67
2021/03/24 10:55:29;;;;;;;;;;;17.70;53.30;;;;;;5002182;28;19920;-66
2021/03/24 10:57:58;;;;;;;;;;;17.70;53.20;;;;;;5002258;28;19926;-65
2021/03/24 11:00:36;;;;;;;;;;;17.70;53.20;;;;;;5003702;28;19976;-64
2021/03/24 11:03:01;;;;;;;;;;;17.70;53.10;;;;;;5003732;28;19921;-66
2021/03/24 11:05:36;;;;;;;;;;;17.80;53.10;;;;;;5002546;28;19913;-62
2021/03/24 11:08:03;;;;;;;;;;;17.80;53.10;;;;;;5001918;28;19999;-66
2021/03/24 11:10:39;;;;;;;;;;;17.80;53.00;;;;;;5002794;28;19917;-62
2021/03/24 11:13:09;;;;;;;;;;;17.80;52.90;;;;;;5002628;28;19984;-66
2021/03/24 11:15:37;;;;;;;;;;;17.80;52.80;;;;;;5002080;28;19921;-67
2021/03/24 11:18:05;;;;;;;;;;;17.80;53.00;;;;;;5003303;28;19914;-66
2021/03/24 11:20:39;;;;;;;;;;;17.80;52.80;;;;;;5001189;28;19929;-65
2021/03/24 11:23:05;;;;;;;;;;;17.80;53.00;;;;;;5003728;28;19914;-67
2021/03/24 11:25:35;;;;;;;;;;;17.80;52.80;;;;;;5002091;28;19922;-64
2021/03/24 11:28:02;;;;;;;;;;;17.80;52.90;;;;;;5001848;28;19948;-65
2021/03/24 11:30:40;;;;;;;;;;;17.90;53.00;;;;;;5002053;28;19996;-63
2021/03/24 11:33:19;;;;;;;;;;;17.90;52.90;;;;;;5001631;28;19928;-65
2021/03/24 11:35:55;;;;;;;;;;;17.80;52.80;;;;;;5002516;28;19996;-65
2021/03/24 11:38:26;;;;;;;;;;;17.90;53.40;;;;;;5001308;28;19918;-63
2021/03/24 11:40:57;;;;;;;;;;;17.90;53.80;;;;;;5004998;28;20008;-66
2021/03/24 11:43:27;;;;;;;;;;;17.80;54.10;;;;;;4996461;28;19914;-66
2021/03/24 11:46:04;;;;;;;;;;;17.80;54.10;;;;;;4997606;28;19921;-63
2021/03/24 11:48:48;;;;;;;;;;;17.80;54.20;;;;;;4995986;28;20425;-65
2021/03/24 11:51:20;;;;;;;;;;;17.80;54.50;;;;;;5003376;28;19914;-65
2021/03/24 11:53:54;;;;;;;;;;;17.90;54.70;;;;;;5001121;28;19921;-66
2021/03/24 11:56:42;;;;;;;;;;;17.90;54.50;;;;;;5003016;28;20399;-65
2021/03/24 11:59:10;;;;;;;;;;;17.90;54.50;;;;;;5005167;28;20304;-66
2021/03/24 12:01:59;;;;;;;;;;;17.90;54.50;;;;;;5007054;28;19927;-67
2021/03/24 12:04:29;;;;;;;;;;;17.90;54.50;;;;;;5002356;28;21979;-67
2021/03/24 12:07:02;;;;;;;;;;;17.90;54.40;;;;;;5004723;28;20575;-66
2021/03/24 12:09:28;;;;;;;;;;;17.90;54.30;;;;;;4997859;28;19917;-67
2021/03/24 12:12:03;;;;;;;;;;;17.90;54.30;;;;;;4989151;28;19917;-66
2021/03/24 12:14:30;;;;;;;;;;;18.00;54.40;;;;;;4988954;28;19913;-67
2021/03/24 12:16:57;;;;;;;;;;;18.00;54.30;;;;;;5005336;28;20448;-66
2021/03/24 12:19:32;;;;;;;;;;;18.00;54.20;;;;;;5005857;28;19913;-67
2021/03/24 12:22:18;;;;;;;;;;;18.00;54.20;;;;;;5006389;28;20383;-67
2021/03/24 12:24:43;;;;;;;;;;;18.00;54.20;;;;;;5002553;28;20000;-67
2021/03/24 12:27:13;;;;;;;;;;;18.00;54.20;;;;;;5005856;28;20055;-66
2021/03/24 12:29:39;;;;;;;;;;;18.00;54.00;;;;;;4997514;28;19968;-67
2021/03/24 12:32:05;;;;;;;;;;;18.00;54.00;;;;;;5005504;28;19952;-67
2021/03/24 12:34:31;;;;;;;;;;;18.10;54.00;;;;;;5005884;28;19924;-68
2021/03/24 12:37:00;;;;;;;;;;;18.10;54.00;;;;;;5004643;28;19913;-66
2021/03/24 12:39:26;;;;;;;;;;;18.10;54.00;;;;;;5004428;28;19996;-67
2021/03/24 12:41:52;;;;;;;;;;;18.10;54.00;;;;;;5005068;28;19922;-67
2021/03/24 12:44:20;;;;;;;;;;;18.00;54.30;;;;;;4998649;28;19913;-66
2021/03/24 12:46:46;;;;;;;;;;;18.00;54.50;;;;;;5006510;28;19928;-66
2021/03/24 12:49:16;;;;;;;;;;;18.00;54.70;;;;;;5006697;28;19921;-66
2021/03/24 12:51:45;;;;;;;;;;;18.00;54.80;;;;;;5006992;28;19979;-67
2021/03/24 12:54:11;;;;;;;;;;;18.00;54.90;;;;;;5005062;28;20043;-66
2021/03/24 12:56:46;;;;;;;;;;;18.00;54.80;;;;;;5005151;28;19913;-67
2021/03/24 12:59:11;;;;;;;;;;;18.00;54.80;;;;;;5004345;28;19976;-66
2021/03/24 13:01:40;;;;;;;;;;;18.00;54.90;;;;;;5004050;28;20428;-67
2021/03/24 13:04:28;;;;;;;;;;;18.00;55.20;;;;;;5005703;28;19914;-67
2021/03/24 13:07:00;;;;;;;;;;;18.10;54.90;;;;;;4998429;28;20448;-67
2021/03/24 13:09:43;;;;;;;;;;;18.10;54.90;;;;;;5004485;28;19913;-67
2021/03/24 13:12:09;;;;;;;;;;;18.10;54.90;;;;;;5003461;28;19936;-67
2021/03/24 13:14:53;;;;;;;;;;;18.10;54.70;;;;;;5003830;28;20507;-67
2021/03/24 13:17:24;;;;;;;;;;;18.10;54.60;;;;;;5002200;28;19914;-67
2021/03/24 13:20:07;;;;;;;;;;;18.10;54.80;;;;;;4998989;28;20376;-67
2021/03/24 13:22:39;;;;;;;;;;;18.10;54.90;;;;;;4996711;28;19917;-65
2021/03/24 13:25:07;;;;;;;;;;;18.10;55.00;;;;;;5007731;28;20013;-67
2021/03/24 13:27:36;;;;;;;;;;;18.10;54.90;;;;;;4980627;28;19924;-66
2021/03/24 13:30:10;;;;;;;;;;;18.10;54.90;;;;;;5017437;28;19976;-66
2021/03/24 13:32:39;;;;;;;;;;;18.10;55.00;;;;;;4984118;28;19913;-66
2021/03/24 13:35:25;;;;;;;;;;;18.10;55.10;;;;;;4985423;28;19914;-67
2021/03/24 13:37:51;;;;;;;;;;;18.10;54.90;;;;;;5001044;28;20448;-67
2021/03/24 13:40:20;;;;;;;;;;;18.10;55.00;;;;;;4988725;28;19917;-67
2021/03/24 13:42:49;;;;;;;;;;;18.10;54.90;;;;;;5005519;28;19944;-67
2021/03/24 13:45:16;;;;;;;;;;;18.10;54.80;;;;;;5006452;28;19914;-67
2021/03/24 13:48:00;;;;;;;;;;;18.10;55.10;;;;;;5005479;28;20374;-66
2021/03/24 13:50:26;;;;;;;;;;;18.10;54.90;;;;;;5005520;28;19913;-66
2021/03/24 13:52:53;;;;;;;;;;;18.10;54.80;;;;;;4997344;28;20032;-66